aviador You're here:

KOTH Decoded Metar

NORTH BEND in OR, USA
Report Time2017-10-23 10:56:00
UTC Time2017-10-23 11:31:57
Flight Rules vfr VFR
Wind140° at 04 kt
W.Decomp.*RWY 13: 4.0 kt HW 0.6 kt LCW
RWY 04: 0.6 kt HW 4.0 kt RCW
W.Rank140° ranks 4
Current wind is below 140° avg. (5.3)
Visibility9999 m
Phenomena:N/A
Clouds:N/A
CeilingNone
Temp10°C (ISA -5)
Dew Point10°C (100% RH)
AAT8.6°C
QNH1033 hPa
Density Alt-1,093 ft
Elevation13 ft
Report Wrong Elevation
Raw Report
METAR KOTH 231056Z AUTO 14004KT 8SM CLR 10/10 A3050 RMK AO2 RAB17E31
SLP328 P0000 T01000100=

Extra information for KOTH:More info

Metar Taf Metar & Taf Last 4 Metars F.Rules Stats Wind Profile Meteogram Temp Stats Airport Information Weather charts Add Link Nearby VenuesMetar ALERT Operation Metar Decoded Social comments

AIRNAV info for KOTH